Time;durP1;ratioP1;P1;durP2;ratioP2;P2;SDS_P1;SDS_P2;PMS_P1;PMS_P2;Temp;Humidity;BMP_temperature;BMP_pressure;BME280_temperature;BME280_humidity;BME280_pressure;Samples;Min_cycle;Max_cycle;Signal;HPM_P1;HPM_P2
2023/12/03 00:01:43;;;;;;;12.27;11.73;;;1.00;99.90;;;;;;5072674;28;20217;-66
2023/12/03 00:04:10;;;;;;;12.33;11.83;;;1.00;99.90;;;;;;5068974;28;20242;-67
2023/12/03 00:06:38;;;;;;;13.10;12.30;;;0.90;99.90;;;;;;5072748;28;20257;-67
2023/12/03 00:09:05;;;;;;;12.63;12.03;;;0.90;99.90;;;;;;5072374;28;20666;-67
2023/12/03 00:11:32;;;;;;;12.63;12.13;;;0.90;99.90;;;;;;5072624;28;20211;-68
2023/12/03 00:13:59;;;;;;;12.60;12.10;;;0.90;99.90;;;;;;5072720;28;20231;-68
2023/12/03 00:16:25;;;;;;;12.37;11.87;;;0.90;99.90;;;;;;5075606;28;20231;-68
2023/12/03 00:18:52;;;;;;;12.20;11.70;;;0.90;99.90;;;;;;5074373;28;20238;-67
2023/12/03 00:21:19;;;;;;;12.43;11.93;;;0.90;99.90;;;;;;5072778;28;20208;-69
2023/12/03 00:23:47;;;;;;;11.70;11.20;;;1.00;99.90;;;;;;5075908;28;20210;-66
2023/12/03 00:26:13;;;;;;;12.23;11.73;;;0.90;99.90;;;;;;5077050;28;20230;-67
2023/12/03 00:28:40;;;;;;;11.80;11.30;;;0.90;99.90;;;;;;5075225;28;20221;-68
2023/12/03 00:31:07;;;;;;;11.93;11.43;;;0.90;99.90;;;;;;5089340;28;20212;-67
2023/12/03 00:33:34;;;;;;;12.40;11.90;;;1.00;99.90;;;;;;5089634;28;20233;-67
2023/12/03 00:36:01;;;;;;;12.33;11.83;;;1.00;99.90;;;;;;5088464;28;20231;-68
2023/12/03 00:38:27;;;;;;;12.83;12.33;;;0.90;99.90;;;;;;5091202;28;20221;-68
2023/12/03 00:40:55;;;;;;;13.00;12.40;;;0.90;99.90;;;;;;5074672;28;20262;-67
2023/12/03 00:43:22;;;;;;;12.93;12.33;;;0.80;99.90;;;;;;5075239;28;20203;-68
2023/12/03 00:45:50;;;;;;;13.17;12.57;;;0.70;99.90;;;;;;5073507;28;20231;-66
2023/12/03 00:48:16;;;;;;;12.80;12.30;;;0.80;99.90;;;;;;5072826;28;20298;-67
2023/12/03 00:50:43;;;;;;;12.30;11.80;;;0.70;99.90;;;;;;5072713;28;20211;-67
2023/12/03 00:53:10;;;;;;;12.30;11.80;;;0.70;99.90;;;;;;5071643;28;20752;-67
2023/12/03 00:55:36;;;;;;;12.43;11.93;;;0.60;99.90;;;;;;5072196;28;20231;-67
2023/12/03 00:58:04;;;;;;;13.17;12.57;;;0.60;99.90;;;;;;5067698;28;20230;-68
2023/12/03 01:00:31;;;;;;;13.00;12.40;;;0.60;99.90;;;;;;5071965;28;20596;-66
2023/12/03 01:02:58;;;;;;;13.03;12.43;;;0.60;99.90;;;;;;5071984;28;20203;-67
2023/12/03 01:05:25;;;;;;;13.70;13.10;;;0.50;99.90;;;;;;5072051;28;20231;-67
2023/12/03 01:07:51;;;;;;;14.03;13.43;;;0.50;99.90;;;;;;5075058;28;20583;-66
2023/12/03 01:10:18;;;;;;;13.47;12.87;;;0.50;99.90;;;;;;5080872;28;20218;-70
2023/12/03 01:12:45;;;;;;;13.40;12.80;;;0.50;99.90;;;;;;5081036;28;20227;-68
2023/12/03 01:15:13;;;;;;;13.00;12.50;;;0.50;99.90;;;;;;5072350;28;20227;-68
2023/12/03 01:17:40;;;;;;;13.97;13.37;;;0.50;99.90;;;;;;5071297;28;20682;-67
2023/12/03 01:20:08;;;;;;;13.87;13.27;;;0.50;99.90;;;;;;5071215;28;20256;-68
2023/12/03 01:22:35;;;;;;;13.13;12.53;;;0.50;99.90;;;;;;5070940;28;20212;-68
2023/12/03 01:25:02;;;;;;;14.27;13.57;;;0.50;99.90;;;;;;5070792;28;20644;-68
2023/12/03 01:27:28;;;;;;;13.30;12.80;;;0.50;99.90;;;;;;5071553;28;20204;-67
2023/12/03 01:29:55;;;;;;;13.57;12.97;;;0.40;99.90;;;;;;5071208;28;20253;-67
2023/12/03 01:32:23;;;;;;;13.60;13.00;;;0.40;99.90;;;;;;5067698;28;20231;-67
2023/12/03 01:34:50;;;;;;;14.03;13.43;;;0.40;99.90;;;;;;5071231;28;20228;-67
2023/12/03 01:37:16;;;;;;;13.60;13.00;;;0.40;99.90;;;;;;5071319;28;20207;-67
2023/12/03 01:39:43;;;;;;;12.30;11.80;;;0.40;99.90;;;;;;5070784;28;20207;-66
2023/12/03 01:42:10;;;;;;;13.33;12.73;;;0.40;99.90;;;;;;5072146;28;20211;-68
2023/12/03 01:44:36;;;;;;;13.83;13.23;;;0.40;99.90;;;;;;5075014;28;20579;-67
2023/12/03 01:47:04;;;;;;;13.77;13.17;;;0.40;99.90;;;;;;5071104;28;20207;-68
2023/12/03 01:49:32;;;;;;;13.73;13.13;;;0.40;99.90;;;;;;5074266;28;20306;-67
2023/12/03 01:52:00;;;;;;;13.87;13.27;;;0.40;99.90;;;;;;5074598;28;20684;-69
2023/12/03 01:54:29;;;;;;;14.20;13.60;;;0.40;99.90;;;;;;5070843;28;20230;-67
2023/12/03 01:56:55;;;;;;;13.23;12.63;;;0.40;99.90;;;;;;5074526;28;20219;-67
2023/12/03 01:59:23;;;;;;;13.27;12.67;;;0.40;99.90;;;;;;5074373;28;20211;-67
2023/12/03 02:01:50;;;;;;;13.53;12.93;;;0.50;99.90;;;;;;5074261;28;20697;-67
2023/12/03 02:04:17;;;;;;;13.00;12.50;;;0.50;99.90;;;;;;5074239;28;20207;-67
2023/12/03 02:06:45;;;;;;;13.60;13.00;;;0.50;99.90;;;;;;5074528;28;20231;-67
2023/12/03 02:09:14;;;;;;;13.20;12.60;;;0.60;99.90;;;;;;5074350;28;20211;-68
2023/12/03 02:11:41;;;;;;;14.43;13.83;;;0.60;99.90;;;;;;5073581;28;20305;-68
2023/12/03 02:14:08;;;;;;;13.37;12.87;;;0.60;99.90;;;;;;5085556;28;20223;-67
2023/12/03 02:16:35;;;;;;;12.70;12.20;;;0.50;99.90;;;;;;5094155;28;20223;-68
2023/12/03 02:19:03;;;;;;;14.10;13.50;;;0.50;99.90;;;;;;5089639;28;20218;-68
2023/12/03 02:21:29;;;;;;;13.80;13.20;;;0.50;99.90;;;;;;5076015;28;20266;-68
2023/12/03 02:23:57;;;;;;;13.30;12.70;;;0.50;99.90;;;;;;5073737;28;20658;-71
2023/12/03 02:26:24;;;;;;;13.37;12.77;;;0.50;99.90;;;;;;5073498;28;20221;-67
2023/12/03 02:28:51;;;;;;;13.47;12.87;;;0.50;99.90;;;;;;5074069;28;20302;-68
2023/12/03 02:31:18;;;;;;;13.40;12.80;;;0.50;99.90;;;;;;5073798;28;20743;-68
2023/12/03 02:33:54;;;;;;;13.00;12.40;;;0.50;99.90;;;;;;5073624;28;20227;-67
2023/12/03 02:36:20;;;;;;;13.43;12.83;;;0.50;99.90;;;;;;5074477;28;20701;-67
2023/12/03 02:38:47;;;;;;;13.00;12.40;;;0.50;99.90;;;;;;5070068;28;20215;-67
2023/12/03 02:41:15;;;;;;;12.37;11.87;;;0.60;99.90;;;;;;5073841;28;20218;-68
2023/12/03 02:43:42;;;;;;;12.03;11.50;;;0.60;99.90;;;;;;5073696;28;20203;-66
2023/12/03 02:46:09;;;;;;;12.83;12.23;;;0.60;99.90;;;;;;5073082;28;20318;-67
2023/12/03 02:48:36;;;;;;;12.97;12.47;;;0.60;99.90;;;;;;5065133;28;20817;-67
2023/12/03 02:51:03;;;;;;;13.47;12.87;;;0.60;99.90;;;;;;5053277;28;20208;-67
2023/12/03 02:53:29;;;;;;;12.57;12.07;;;0.60;99.90;;;;;;5048391;28;20224;-66
2023/12/03 02:55:56;;;;;;;12.93;12.37;;;0.60;99.90;;;;;;5052959;28;20234;-67
2023/12/03 02:58:24;;;;;;;13.63;13.03;;;0.60;99.90;;;;;;5049391;28;20223;-69
2023/12/03 03:00:51;;;;;;;13.87;13.27;;;0.60;99.90;;;;;;5053112;28;20222;-67
2023/12/03 03:03:17;;;;;;;13.40;12.80;;;0.60;99.90;;;;;;5052857;28;20207;-68
2023/12/03 03:05:44;;;;;;;13.50;12.90;;;0.60;99.90;;;;;;5050303;28;20234;-69
2023/12/03 03:08:11;;;;;;;13.10;12.50;;;0.50;99.90;;;;;;5054306;28;20299;-67
2023/12/03 03:10:38;;;;;;;13.57;12.97;;;0.50;99.90;;;;;;5054319;28;20246;-68
2023/12/03 03:13:04;;;;;;;13.40;12.80;;;0.50;99.90;;;;;;5053530;28;20236;-68
2023/12/03 03:15:32;;;;;;;13.03;12.43;;;0.40;99.90;;;;;;5052980;28;20239;-66
2023/12/03 03:17:59;;;;;;;13.23;12.67;;;0.30;99.90;;;;;;5052975;28;20217;-67
2023/12/03 03:20:26;;;;;;;12.80;12.30;;;0.30;99.90;;;;;;5053163;28;20208;-68
2023/12/03 03:22:51;;;;;;;12.87;12.37;;;0.20;99.90;;;;;;5052754;28;20208;-67
2023/12/03 03:25:18;;;;;;;13.63;13.03;;;0.20;99.90;;;;;;5052574;28;20718;-68
2023/12/03 03:27:45;;;;;;;13.23;12.63;;;0.10;99.90;;;;;;5052753;28;20698;-68
2023/12/03 03:30:12;;;;;;;12.80;12.20;;;0.10;99.90;;;;;;5052754;28;20208;-69
2023/12/03 03:32:40;;;;;;;12.70;12.20;;;0.00;99.90;;;;;;5052940;28;20211;-67
2023/12/03 03:35:08;;;;;;;13.40;12.80;;;0.00;99.90;;;;;;5052430;28;20223;-67
2023/12/03 03:37:35;;;;;;;13.53;12.93;;;0.00;99.90;;;;;;5052238;28;20692;-67
2023/12/03 03:40:02;;;;;;;13.93;13.33;;;0.00;99.90;;;;;;5047447;28;20614;-67
2023/12/03 03:42:29;;;;;;;14.07;13.48;;;-0.10;99.90;;;;;;5052205;28;20235;-67
2023/12/03 03:44:56;;;;;;;14.20;13.60;;;-0.10;99.90;;;;;;5052128;28;20224;-67
2023/12/03 03:47:24;;;;;;;14.10;13.50;;;-0.10;99.90;;;;;;5052207;28;20207;-67
2023/12/03 03:49:52;;;;;;;14.07;13.47;;;-0.20;99.90;;;;;;5052075;28;20208;-66
2023/12/03 03:52:18;;;;;;;13.33;12.73;;;-0.30;99.90;;;;;;5051904;28;20237;-68
2023/12/03 03:54:45;;;;;;;13.20;12.67;;;-0.40;99.90;;;;;;5051696;28;20232;-68
2023/12/03 03:57:12;;;;;;;12.90;12.40;;;-0.50;99.90;;;;;;5053506;28;20227;-68
2023/12/03 03:59:39;;;;;;;12.90;12.40;;;-0.50;99.90;;;;;;5055860;28;20258;-66
2023/12/03 04:02:05;;;;;;;12.63;12.13;;;-0.40;99.90;;;;;;5052348;28;20698;-68
2023/12/03 04:04:32;;;;;;;13.03;12.50;;;-0.40;99.90;;;;;;5057673;28;20210;-68
2023/12/03 04:07:00;;;;;;;13.60;13.00;;;-0.40;99.90;;;;;;5055485;28;20258;-68
2023/12/03 04:09:28;;;;;;;13.13;12.53;;;-0.40;99.90;;;;;;5053104;28;20215;-66
2023/12/03 04:11:54;;;;;;;12.93;12.33;;;-0.50;99.90;;;;;;5053274;28;20212;-68
2023/12/03 04:14:21;;;;;;;13.07;12.47;;;-0.60;99.90;;;;;;5052552;28;20235;-68
2023/12/03 04:16:48;;;;;;;13.33;12.73;;;-0.60;99.90;;;;;;5048900;28;20260;-68
2023/12/03 04:19:14;;;;;;;13.50;12.90;;;-0.60;99.90;;;;;;5051790;28;20208;-68
2023/12/03 04:21:41;;;;;;;13.10;12.50;;;-0.60;99.90;;;;;;5051720;28;20211;-67
2023/12/03 04:24:09;;;;;;;12.63;12.13;;;-0.70;99.90;;;;;;5051814;28;20211;-68
2023/12/03 04:26:36;;;;;;;12.20;11.67;;;-0.60;99.90;;;;;;5051559;28;20918;-68
2023/12/03 04:29:04;;;;;;;13.40;12.80;;;-0.50;99.90;;;;;;5051437;28;20215;-68
2023/12/03 04:31:30;;;;;;;13.37;12.77;;;-0.50;99.90;;;;;;5056565;28;20230;-66
2023/12/03 04:33:57;;;;;;;12.75;12.25;;;-0.50;99.90;;;;;;5053652;28;20234;-68
2023/12/03 04:36:26;;;;;;;13.48;12.88;;;-0.50;99.90;;;;;;5053762;28;20580;-66
2023/12/03 04:38:53;;;;;;;12.87;12.27;;;-0.50;99.90;;;;;;5053096;28;20565;-68
2023/12/03 04:41:22;;;;;;;13.50;12.90;;;-0.50;99.90;;;;;;5052815;28;20211;-66
2023/12/03 04:43:48;;;;;;;13.20;12.60;;;-0.50;99.90;;;;;;5052771;28;20683;-65
2023/12/03 04:46:15;;;;;;;12.60;12.10;;;-0.40;99.90;;;;;;5059423;28;20241;-67
2023/12/03 04:48:42;;;;;;;12.30;11.80;;;-0.40;99.90;;;;;;5062275;28;20258;-67
2023/12/03 04:51:12;;;;;;;12.90;12.30;;;-0.40;99.90;;;;;;5060641;28;20622;-67
2023/12/03 04:53:38;;;;;;;12.60;12.03;;;-0.30;99.90;;;;;;5051301;28;20258;-68
2023/12/03 04:56:06;;;;;;;12.57;12.03;;;-0.30;99.90;;;;;;5051915;28;20298;-67
2023/12/03 04:58:34;;;;;;;13.00;12.40;;;-0.30;99.90;;;;;;5066302;28;20226;-68
2023/12/03 05:01:02;;;;;;;12.90;12.30;;;-0.30;99.90;;;;;;5072237;28;20585;-69
2023/12/03 05:03:28;;;;;;;12.52;12.02;;;-0.30;99.90;;;;;;5071870;28;20203;-67
2023/12/03 05:05:55;;;;;;;12.97;12.37;;;-0.30;99.90;;;;;;5071447;28;20718;-67
2023/12/03 05:08:22;;;;;;;13.00;12.43;;;-0.30;99.90;;;;;;5071243;28;20223;-67
2023/12/03 05:10:48;;;;;;;12.97;12.37;;;-0.20;99.90;;;;;;5071714;28;20211;-68
2023/12/03 05:13:16;;;;;;;13.27;12.67;;;-0.20;99.90;;;;;;5071285;28;20210;-68
2023/12/03 05:15:44;;;;;;;12.70;12.20;;;-0.20;99.90;;;;;;5072356;28;20241;-68
2023/12/03 05:18:11;;;;;;;12.55;11.95;;;-0.40;99.90;;;;;;5067599;28;20211;-67
2023/12/03 05:20:37;;;;;;;12.57;12.07;;;-0.60;99.90;;;;;;5077177;28;20211;-66
2023/12/03 05:23:04;;;;;;;12.93;12.33;;;-0.80;99.90;;;;;;5078305;28;20278;-66
2023/12/03 05:25:31;;;;;;;13.20;12.60;;;-0.90;99.90;;;;;;5073551;28;20227;-67
2023/12/03 05:27:58;;;;;;;11.90;11.40;;;-1.00;99.90;;;;;;5074399;28;20210;-68
2023/12/03 05:30:25;;;;;;;12.27;11.77;;;-1.10;99.90;;;;;;5079405;28;20218;-67
2023/12/03 05:32:53;;;;;;;12.23;11.73;;;-1.10;99.90;;;;;;5081860;28;20207;-67
2023/12/03 05:35:20;;;;;;;12.37;11.87;;;-1.10;99.90;;;;;;5077773;28;20227;-68
2023/12/03 05:37:47;;;;;;;11.70;11.20;;;-1.10;99.90;;;;;;5077964;28;20214;-68
2023/12/03 05:40:13;;;;;;;11.97;11.47;;;-1.20;99.90;;;;;;5081236;28;20246;-68
2023/12/03 05:42:40;;;;;;;12.67;12.13;;;-1.20;99.90;;;;;;5076544;28;20204;-68
2023/12/03 05:45:08;;;;;;;12.00;11.50;;;-1.20;99.90;;;;;;5081682;28;20235;-68
2023/12/03 05:47:35;;;;;;;11.70;11.20;;;-1.30;99.90;;;;;;5077927;28;20231;-68
2023/12/03 05:50:04;;;;;;;12.48;11.88;;;-1.20;99.90;;;;;;5079407;28;20212;-68
2023/12/03 05:52:31;;;;;;;12.17;11.67;;;-1.20;99.90;;;;;;5079324;28;20666;-67
2023/12/03 05:54:57;;;;;;;11.93;11.43;;;-1.30;99.90;;;;;;5078221;28;20243;-67
2023/12/03 05:57:24;;;;;;;12.37;11.77;;;-1.30;99.90;;;;;;5074436;28;20552;-69
2023/12/03 05:59:53;;;;;;;12.57;11.97;;;-1.30;99.90;;;;;;5077396;28;20207;-67
2023/12/03 06:02:20;;;;;;;12.27;11.73;;;-1.30;99.90;;;;;;5077822;28;20207;-69
2023/12/03 06:04:47;;;;;;;11.90;11.30;;;-1.30;99.90;;;;;;5072531;28;20203;-68
2023/12/03 06:07:15;;;;;;;11.98;11.48;;;-1.30;99.90;;;;;;5076890;28;20217;-68
2023/12/03 06:09:41;;;;;;;11.73;11.23;;;-1.30;99.90;;;;;;5077041;28;20203;-68
2023/12/03 06:12:08;;;;;;;12.17;11.67;;;-1.30;99.90;;;;;;5073398;28;20215;-66
2023/12/03 06:14:35;;;;;;;11.95;11.45;;;-1.40;99.90;;;;;;5077875;28;20253;-66
2023/12/03 06:17:02;;;;;;;11.97;11.40;;;-1.40;99.90;;;;;;5073234;28;20211;-69
2023/12/03 06:19:29;;;;;;;11.93;11.32;;;-1.40;99.90;;;;;;5076818;28;20207;-66
2023/12/03 06:21:57;;;;;;;13.13;12.53;;;-1.40;99.90;;;;;;5077405;28;20207;-69
2023/12/03 06:24:26;;;;;;;12.57;11.87;;;-1.40;99.90;;;;;;5077492;28;20203;-68
2023/12/03 06:26:53;;;;;;;12.90;12.30;;;-1.50;99.90;;;;;;5077005;28;20231;-68
2023/12/03 06:29:20;;;;;;;11.90;11.40;;;-1.50;99.90;;;;;;5077401;28;20220;-69
2023/12/03 06:31:47;;;;;;;12.17;11.67;;;-1.50;99.90;;;;;;5077878;28;20238;-68
2023/12/03 06:34:15;;;;;;;12.43;11.83;;;-1.60;99.90;;;;;;5077032;28;20597;-67
2023/12/03 06:36:42;;;;;;;12.38;11.80;;;-1.60;99.90;;;;;;5074297;28;20251;-68
2023/12/03 06:39:08;;;;;;;12.00;11.50;;;-1.60;99.90;;;;;;5077709;28;20207;-68
2023/12/03 06:41:37;;;;;;;11.40;10.90;;;-1.70;99.90;;;;;;5077620;28;20238;-68
2023/12/03 06:44:03;;;;;;;12.03;11.53;;;-1.70;99.90;;;;;;5077276;28;20600;-67
2023/12/03 06:46:30;;;;;;;12.60;12.00;;;-1.60;99.90;;;;;;5077234;28;20235;-68
2023/12/03 06:48:57;;;;;;;12.30;11.80;;;-1.70;99.90;;;;;;5077245;28;20207;-69
2023/12/03 06:51:24;;;;;;;11.97;11.47;;;-1.70;99.90;;;;;;5073699;28;20222;-67
2023/12/03 06:53:50;;;;;;;12.67;12.07;;;-1.70;99.90;;;;;;5078314;28;20207;-67
2023/12/03 06:56:17;;;;;;;12.00;11.50;;;-1.80;99.90;;;;;;5073505;28;20223;-69
2023/12/03 06:58:45;;;;;;;12.20;11.70;;;-1.90;99.90;;;;;;5077488;28;20215;-69
2023/12/03 07:01:13;;;;;;;12.40;11.90;;;-1.90;99.90;;;;;;5077474;28;20215;-69
2023/12/03 07:03:40;;;;;;;12.67;12.07;;;-1.90;99.90;;;;;;5077284;28;20631;-68
2023/12/03 07:06:07;;;;;;;12.17;11.57;;;-2.00;99.90;;;;;;5076987;28;20235;-68
2023/12/03 07:08:34;;;;;;;11.87;11.37;;;-2.00;99.90;;;;;;5077305;28;20207;-69
2023/12/03 07:11:01;;;;;;;12.10;11.50;;;-2.00;99.90;;;;;;5070890;28;20230;-68
2023/12/03 07:13:27;;;;;;;12.77;12.17;;;-2.00;99.90;;;;;;5072459;28;20207;-68
2023/12/03 07:15:55;;;;;;;12.20;11.70;;;-2.00;99.90;;;;;;5075092;28;20602;-68
2023/12/03 07:18:22;;;;;;;12.15;11.55;;;-2.00;99.90;;;;;;5079138;28;20215;-68
2023/12/03 07:20:49;;;;;;;12.03;11.47;;;-1.90;99.90;;;;;;5080521;28;20214;-67
2023/12/03 07:23:15;;;;;;;11.87;11.37;;;-1.80;99.90;;;;;;5080589;28;20207;-70
2023/12/03 07:25:42;;;;;;;11.37;10.87;;;-1.80;99.90;;;;;;5079254;28;20223;-67
2023/12/03 07:28:09;;;;;;;12.70;12.00;;;-1.80;99.90;;;;;;5075037;28;20214;-67
2023/12/03 07:30:36;;;;;;;11.97;11.47;;;-1.80;99.90;;;;;;5074456;28;20211;-66
2023/12/03 07:33:04;;;;;;;12.10;11.50;;;-1.70;99.90;;;;;;5070085;28;20211;-67
2023/12/03 07:35:31;;;;;;;11.90;11.30;;;-1.60;99.90;;;;;;5075160;28;20235;-68
2023/12/03 07:37:59;;;;;;;12.30;11.70;;;-1.70;99.90;;;;;;5070305;28;20211;-67
2023/12/03 07:40:26;;;;;;;12.10;11.60;;;-1.70;99.90;;;;;;5074606;28;20207;-68
2023/12/03 07:42:53;;;;;;;12.03;11.53;;;-1.70;99.90;;;;;;5069900;28;20241;-67
2023/12/03 07:45:19;;;;;;;12.00;11.50;;;-1.70;99.90;;;;;;5076210;28;20226;-68
2023/12/03 07:47:46;;;;;;;12.03;11.53;;;-1.80;99.90;;;;;;5085749;28;20213;-68
2023/12/03 07:50:14;;;;;;;12.60;12.00;;;-1.80;99.90;;;;;;5083196;28;20340;-68
2023/12/03 07:52:42;;;;;;;11.30;10.80;;;-1.70;99.90;;;;;;5071430;28;20208;-66
2023/12/03 07:55:10;;;;;;;12.33;11.83;;;-1.80;99.90;;;;;;5076113;28;20690;-68
2023/12/03 07:57:37;;;;;;;11.90;11.40;;;-1.70;99.90;;;;;;5075112;28;20585;-70
2023/12/03 08:00:06;;;;;;;11.87;11.37;;;-1.70;99.90;;;;;;5074044;28;20212;-69
2023/12/03 08:02:33;;;;;;;12.43;11.83;;;-1.70;99.90;;;;;;5085228;28;20214;-68
2023/12/03 08:05:00;;;;;;;12.37;11.77;;;-1.60;99.90;;;;;;5083171;28;20698;-70
2023/12/03 08:07:28;;;;;;;11.93;11.43;;;-1.50;99.90;;;;;;5082405;28;20211;-69
2023/12/03 08:09:54;;;;;;;12.63;12.10;;;-1.40;99.90;;;;;;5082922;28;20215;-69
2023/12/03 08:12:21;;;;;;;11.87;11.37;;;-1.40;99.90;;;;;;5069802;28;20257;-68
2023/12/03 08:14:48;;;;;;;12.33;11.73;;;-1.30;99.90;;;;;;5076437;28;20726;-67
2023/12/03 08:17:14;;;;;;;12.10;11.60;;;-1.30;99.90;;;;;;5067758;28;20226;-71
2023/12/03 08:19:41;;;;;;;12.10;11.60;;;-1.20;99.90;;;;;;5076602;28;20207;-69
2023/12/03 08:22:08;;;;;;;12.00;11.50;;;-1.10;99.90;;;;;;5073619;28;20207;-68
2023/12/03 08:24:36;;;;;;;12.27;11.77;;;-1.00;99.90;;;;;;5074814;28;20581;-67
2023/12/03 08:27:03;;;;;;;11.57;11.07;;;-0.90;99.90;;;;;;5080295;28;20234;-68
2023/12/03 08:29:30;;;;;;;11.73;11.23;;;-0.90;99.90;;;;;;5076727;28;20211;-70
2023/12/03 08:31:56;;;;;;;11.77;11.27;;;-0.70;99.90;;;;;;5075069;28;20219;-68
2023/12/03 08:34:23;;;;;;;12.37;11.77;;;-0.60;99.90;;;;;;5069868;28;20207;-68
2023/12/03 08:36:51;;;;;;;12.77;12.17;;;-0.50;99.90;;;;;;5074379;28;20280;-69
2023/12/03 08:39:17;;;;;;;12.33;11.80;;;-0.40;99.90;;;;;;5076563;28;20207;-68
2023/12/03 08:41:45;;;;;;;13.17;12.57;;;-0.30;99.90;;;;;;5080021;28;20211;-68
2023/12/03 08:44:12;;;;;;;12.43;11.93;;;-0.20;99.90;;;;;;5077792;28;20203;-67
2023/12/03 08:46:39;;;;;;;13.80;13.20;;;-0.10;99.90;;;;;;5075889;28;20235;-67
2023/12/03 08:49:05;;;;;;;13.53;12.93;;;-0.10;99.90;;;;;;5072152;28;20215;-68
2023/12/03 08:51:32;;;;;;;12.52;11.93;;;-0.10;99.90;;;;;;5074092;28;20218;-68
2023/12/03 08:53:59;;;;;;;12.90;12.30;;;0.00;99.90;;;;;;5079055;28;20210;-68
2023/12/03 08:56:26;;;;;;;12.90;12.30;;;0.10;99.90;;;;;;5079074;28;20245;-69
2023/12/03 08:58:54;;;;;;;14.07;13.47;;;0.20;99.90;;;;;;5079323;28;20203;-67
2023/12/03 09:01:21;;;;;;;13.93;13.33;;;0.40;99.90;;;;;;5077193;28;20316;-68
2023/12/03 09:03:48;;;;;;;12.87;12.30;;;0.50;99.90;;;;;;5077010;28;20203;-69
2023/12/03 09:06:15;;;;;;;13.03;12.43;;;0.60;99.90;;;;;;5077905;28;20276;-68
2023/12/03 09:08:42;;;;;;;13.30;12.70;;;0.70;99.90;;;;;;5075170;28;20241;-70
2023/12/03 09:11:09;;;;;;;12.77;12.17;;;0.80;99.90;;;;;;5075634;28;20576;-68
2023/12/03 09:13:35;;;;;;;12.20;11.70;;;1.00;99.90;;;;;;5075727;28;20218;-65
2023/12/03 09:16:04;;;;;;;12.50;12.00;;;1.10;99.90;;;;;;5075612;28;20235;-68
2023/12/03 09:18:33;;;;;;;12.57;12.07;;;1.20;99.90;;;;;;5075128;28;20252;-67
2023/12/03 09:21:00;;;;;;;12.00;11.50;;;1.20;99.90;;;;;;5076434;28;20211;-67
2023/12/03 09:23:28;;;;;;;12.20;11.70;;;1.30;99.90;;;;;;5075612;28;20876;-69
2023/12/03 09:25:54;;;;;;;12.50;12.00;;;1.40;99.90;;;;;;5070471;28;20227;-69
2023/12/03 09:28:21;;;;;;;13.53;12.93;;;1.50;99.90;;;;;;5074810;28;20211;-69
2023/12/03 09:30:48;;;;;;;11.97;11.47;;;1.60;99.90;;;;;;5075683;28;20242;-66
2023/12/03 09:33:16;;;;;;;13.40;12.80;;;1.70;99.90;;;;;;5075225;28;20218;-68
2023/12/03 09:35:42;;;;;;;14.00;13.40;;;1.80;99.90;;;;;;5075463;28;20667;-67
2023/12/03 09:38:09;;;;;;;13.95;13.32;;;1.90;99.90;;;;;;5075302;28;20211;-66
2023/12/03 09:40:36;;;;;;;12.40;11.90;;;2.00;99.90;;;;;;5075923;28;20211;-67
2023/12/03 09:43:06;;;;;;;14.30;13.70;;;2.00;99.90;;;;;;5075642;28;20246;-68
2023/12/03 09:45:33;;;;;;;13.40;12.80;;;2.10;99.90;;;;;;5073216;28;20609;-68
2023/12/03 09:48:02;;;;;;;13.33;12.83;;;2.20;99.90;;;;;;5073578;28;20211;-68
2023/12/03 09:50:31;;;;;;;13.00;12.50;;;2.20;99.90;;;;;;5077445;28;20233;-68
2023/12/03 09:53:00;;;;;;;13.53;12.93;;;2.20;99.90;;;;;;5074451;28;20652;-68
2023/12/03 09:55:28;;;;;;;13.40;12.80;;;2.30;99.90;;;;;;5074603;28;20602;-66
2023/12/03 09:57:56;;;;;;;12.33;11.83;;;2.40;99.90;;;;;;5074650;28;20419;-67
2023/12/03 10:00:23;;;;;;;13.32;12.77;;;2.50;99.90;;;;;;5074876;28;20571;-68
2023/12/03 10:02:52;;;;;;;13.10;12.60;;;2.60;99.90;;;;;;5074524;28;20678;-66
2023/12/03 10:05:19;;;;;;;13.77;13.17;;;2.70;99.90;;;;;;5070717;28;20227;-69
2023/12/03 10:07:49;;;;;;;13.13;12.63;;;2.70;99.90;;;;;;5074233;28;20215;-69
2023/12/03 10:10:18;;;;;;;13.27;12.67;;;2.80;99.90;;;;;;5074285;28;20674;-67
2023/12/03 10:12:46;;;;;;;12.83;12.33;;;3.00;99.90;;;;;;5074519;28;20203;-68
2023/12/03 10:15:14;;;;;;;13.23;12.73;;;3.00;99.90;;;;;;5074248;28;20613;-70
2023/12/03 10:17:40;;;;;;;12.87;12.37;;;3.00;99.90;;;;;;5074620;28;20214;-66
2023/12/03 10:20:27;;;;;;;12.60;12.10;;;3.20;99.90;;;;;;5074340;28;20271;-67
2023/12/03 10:22:58;;;;;;;12.63;12.13;;;3.30;99.90;;;;;;5074316;28;20787;-69
2023/12/03 10:25:32;;;;;;;12.23;11.73;;;3.30;99.90;;;;;;5069985;28;20323;-69
2023/12/03 10:28:00;;;;;;;12.87;12.37;;;3.30;99.90;;;;;;5078663;28;20217;-67
2023/12/03 10:30:27;;;;;;;12.60;12.10;;;3.40;99.90;;;;;;5072455;28;20218;-69
2023/12/03 10:32:55;;;;;;;12.80;12.30;;;3.40;99.90;;;;;;5076548;28;20709;-67
2023/12/03 10:35:22;;;;;;;13.13;12.63;;;3.50;99.90;;;;;;5072752;28;20231;-68
2023/12/03 10:37:49;;;;;;;12.67;12.17;;;3.50;99.90;;;;;;5077906;28;20211;-70
2023/12/03 10:40:18;;;;;;;12.60;12.10;;;3.40;99.90;;;;;;5077328;28;20241;-69
2023/12/03 10:42:45;;;;;;;13.00;12.50;;;3.40;99.90;;;;;;5083251;28;20243;-68
2023/12/03 10:45:13;;;;;;;13.40;12.90;;;3.40;99.90;;;;;;5079214;28;20227;-67
2023/12/03 10:47:41;;;;;;;12.97;12.47;;;3.40;99.90;;;;;;5082228;28;20215;-67
2023/12/03 10:50:11;;;;;;;12.17;11.67;;;3.50;99.90;;;;;;5081637;28;20211;-67
2023/12/03 10:52:39;;;;;;;13.50;13.00;;;3.40;99.90;;;;;;5073164;28;20211;-70
2023/12/03 10:55:07;;;;;;;12.17;11.67;;;3.40;99.90;;;;;;5069120;28;20322;-69
2023/12/03 10:57:43;;;;;;;12.83;12.33;;;3.50;99.90;;;;;;5083873;28;20670;-68
2023/12/03 11:00:13;;;;;;;14.53;13.93;;;3.50;99.90;;;;;;5079326;28;20221;-68
2023/12/03 11:02:45;;;;;;;13.33;12.83;;;3.40;99.90;;;;;;5079376;28;20216;-68
2023/12/03 11:05:15;;;;;;;13.13;12.63;;;3.40;99.90;;;;;;5066380;28;20706;-67
2023/12/03 11:07:42;;;;;;;12.70;12.20;;;3.40;99.90;;;;;;5054377;28;20204;-69
2023/12/03 11:10:11;;;;;;;13.73;13.13;;;3.50;99.90;;;;;;5060919;28;20218;-69
2023/12/03 11:12:39;;;;;;;13.23;12.73;;;3.50;99.90;;;;;;5070496;28;20219;-69
2023/12/03 11:15:08;;;;;;;12.87;12.37;;;3.60;99.90;;;;;;5063920;28;20596;-68
2023/12/03 11:17:40;;;;;;;13.07;12.57;;;3.60;99.90;;;;;;5074130;28;20207;-69
2023/12/03 11:20:11;;;;;;;13.13;12.63;;;3.60;99.90;;;;;;5065129;28;20238;-68
2023/12/03 11:22:49;;;;;;;13.33;12.83;;;3.60;99.90;;;;;;5068617;28;20218;-69
2023/12/03 11:25:22;;;;;;;12.37;11.90;;;3.60;99.90;;;;;;5069096;28;20270;-68
2023/12/03 11:27:52;;;;;;;12.93;12.40;;;3.60;99.90;;;;;;5050838;28;20569;-68
2023/12/03 11:30:36;;;;;;;13.00;12.50;;;3.70;99.90;;;;;;5056299;28;20203;-68
2023/12/03 11:33:07;;;;;;;12.73;12.23;;;3.60;99.90;;;;;;5054274;28;20235;-67
2023/12/03 11:35:34;;;;;;;12.70;12.20;;;3.60;99.90;;;;;;5068514;28;20223;-66
2023/12/03 11:38:01;;;;;;;13.03;12.53;;;3.60;99.90;;;;;;5073645;28;20230;-69
2023/12/03 11:40:33;;;;;;;13.63;13.03;;;3.60;99.90;;;;;;5056709;28;20208;-68
2023/12/03 11:43:01;;;;;;;12.73;12.23;;;3.60;99.90;;;;;;5071735;28;20207;-72
2023/12/03 11:45:29;;;;;;;12.33;11.83;;;3.70;99.90;;;;;;5069327;28;20235;-68
2023/12/03 11:48:09;;;;;;;12.93;12.43;;;3.70;99.90;;;;;;5068053;28;20210;-67
2023/12/03 11:50:37;;;;;;;13.10;12.60;;;3.70;99.90;;;;;;5072547;28;20588;-67
2023/12/03 11:53:05;;;;;;;12.73;12.23;;;3.60;99.90;;;;;;5066622;28;20215;-68
2023/12/03 11:55:34;;;;;;;13.33;12.83;;;3.70;99.90;;;;;;5072891;28;20254;-67
2023/12/03 11:58:03;;;;;;;12.17;11.67;;;3.60;99.90;;;;;;5060009;28;20683;-68
2023/12/03 12:00:30;;;;;;;13.27;12.77;;;3.60;99.90;;;;;;5055971;28;20702;-67
2023/12/03 12:02:57;;;;;;;12.70;12.20;;;3.60;99.90;;;;;;5059735;28;20219;-68
2023/12/03 12:05:24;;;;;;;12.90;12.40;;;3.50;99.90;;;;;;5065312;28;20670;-67
2023/12/03 12:08:01;;;;;;;12.57;12.07;;;3.50;99.90;;;;;;5074627;28;20211;-67
2023/12/03 12:10:28;;;;;;;13.13;12.63;;;3.50;99.90;;;;;;5083106;28;20293;-68
2023/12/03 12:12:55;;;;;;;12.47;11.97;;;3.60;99.90;;;;;;5069548;28;20294;-68
2023/12/03 12:15:24;;;;;;;12.77;12.27;;;3.60;99.90;;;;;;5060477;28;20232;-68
2023/12/03 12:17:51;;;;;;;12.73;12.23;;;3.60;99.90;;;;;;5069718;28;20211;-67
2023/12/03 12:20:24;;;;;;;12.20;11.70;;;3.60;99.90;;;;;;5072847;28;20203;-67
2023/12/03 12:22:50;;;;;;;12.30;11.80;;;3.60;99.90;;;;;;5072211;28;20215;-67
2023/12/03 12:25:17;;;;;;;12.70;12.20;;;3.60;99.90;;;;;;5072579;28;20223;-67
2023/12/03 12:27:45;;;;;;;12.10;11.70;;;3.60;99.90;;;;;;5072173;28;20237;-66
2023/12/03 12:30:15;;;;;;;11.77;11.27;;;3.60;99.90;;;;;;5074105;28;20216;-68
2023/12/03 12:32:43;;;;;;;13.00;12.50;;;3.60;99.90;;;;;;5073604;28;20697;-69
2023/12/03 12:35:10;;;;;;;12.83;12.33;;;3.70;99.90;;;;;;5069673;28;20238;-68